sensor_id;sensor_type;location;lat;lon;timestamp;pressure;altitude;pressure_sealevel;temperature;humidity
70976;BME280;58635;51.198;6.010;2024-01-15T00:02:02;100274.91;;;4.31;66.46
70976;BME280;58635;51.198;6.010;2024-01-15T00:04:28;100265.47;;;4.32;66.48
70976;BME280;58635;51.198;6.010;2024-01-15T00:06:53;100271.22;;;4.34;66.33
70976;BME280;58635;51.198;6.010;2024-01-15T00:09:19;100268.47;;;4.35;66.31
70976;BME280;58635;51.198;6.010;2024-01-15T00:11:44;100269.91;;;4.38;66.16
70976;BME280;58635;51.198;6.010;2024-01-15T00:14:10;100266.25;;;4.40;66.31
70976;BME280;58635;51.198;6.010;2024-01-15T00:16:35;100255.03;;;4.42;66.43
70976;BME280;58635;51.198;6.010;2024-01-15T00:19:00;100254.06;;;4.43;66.01
70976;BME280;58635;51.198;6.010;2024-01-15T00:21:26;100255.66;;;4.44;66.32
70976;BME280;58635;51.198;6.010;2024-01-15T00:23:53;100254.41;;;4.39;66.35
70976;BME280;58635;51.198;6.010;2024-01-15T00:26:18;100243.69;;;4.36;66.40
70976;BME280;58635;51.198;6.010;2024-01-15T00:28:44;100242.09;;;4.35;66.61
70976;BME280;58635;51.198;6.010;2024-01-15T00:31:09;100230.75;;;4.29;66.67
70976;BME280;58635;51.198;6.010;2024-01-15T00:33:36;100232.97;;;4.32;66.58
70976;BME280;58635;51.198;6.010;2024-01-15T00:36:01;100230.25;;;4.34;66.60
70976;BME280;58635;51.198;6.010;2024-01-15T00:38:27;100227.22;;;4.30;66.56
70976;BME280;58635;51.198;6.010;2024-01-15T00:40:52;100229.44;;;4.33;66.95
70976;BME280;58635;51.198;6.010;2024-01-15T00:43:17;100226.72;;;4.35;67.07
70976;BME280;58635;51.198;6.010;2024-01-15T00:45:45;100218.25;;;4.34;66.77
70976;BME280;58635;51.198;6.010;2024-01-15T00:48:10;100230.88;;;4.36;66.84
70976;BME280;58635;51.198;6.010;2024-01-15T00:50:35;100230.06;;;4.35;66.94
70976;BME280;58635;51.198;6.010;2024-01-15T00:53:03;100229.09;;;4.36;67.16
70976;BME280;58635;51.198;6.010;2024-01-15T00:55:28;100222.72;;;4.40;66.96
70976;BME280;58635;51.198;6.010;2024-01-15T00:57:54;100215.66;;;4.43;66.74
70976;BME280;58635;51.198;6.010;2024-01-15T01:00:19;100213.09;;;4.43;67.05
70976;BME280;58635;51.198;6.010;2024-01-15T01:02:45;100201.88;;;4.44;66.83
70976;BME280;58635;51.198;6.010;2024-01-15T01:05:10;100210.72;;;4.41;66.90
70976;BME280;58635;51.198;6.010;2024-01-15T01:07:35;100208.16;;;4.41;66.85
70976;BME280;58635;51.198;6.010;2024-01-15T01:10:01;100208.78;;;4.43;67.39
70976;BME280;58635;51.198;6.010;2024-01-15T01:12:28;100197.91;;;4.41;66.96
70976;BME280;58635;51.198;6.010;2024-01-15T01:14:55;100196.94;;;4.42;67.03
70976;BME280;58635;51.198;6.010;2024-01-15T01:17:20;100194.72;;;4.39;67.56
70976;BME280;58635;51.198;6.010;2024-01-15T01:19:45;100192.94;;;4.39;67.48
70976;BME280;58635;51.198;6.010;2024-01-15T01:22:11;100197.41;;;4.37;67.36
70976;BME280;58635;51.198;6.010;2024-01-15T01:24:36;100191.34;;;4.38;67.57
70976;BME280;58635;51.198;6.010;2024-01-15T01:27:01;100194.06;;;4.37;67.66
70976;BME280;58635;51.198;6.010;2024-01-15T01:29:27;100189.59;;;4.39;67.74
70976;BME280;58635;51.198;6.010;2024-01-15T01:31:52;100182.22;;;4.36;67.13
70976;BME280;58635;51.198;6.010;2024-01-15T01:34:18;100180.47;;;4.36;67.62
70976;BME280;58635;51.198;6.010;2024-01-15T01:36:43;100180.63;;;4.35;67.50
70976;BME280;58635;51.198;6.010;2024-01-15T01:39:08;100180.63;;;4.35;67.47
70976;BME280;58635;51.198;6.010;2024-01-15T01:41:34;100180.47;;;4.36;67.59
70976;BME280;58635;51.198;6.010;2024-01-15T01:43:59;100185.59;;;4.36;67.82
70976;BME280;58635;51.198;6.010;2024-01-15T01:46:27;100182.06;;;4.37;67.56
70976;BME280;58635;51.198;6.010;2024-01-15T01:48:53;100186.06;;;4.40;67.51
70976;BME280;58635;51.198;6.010;2024-01-15T01:51:19;100188.47;;;4.42;67.36
70976;BME280;58635;51.198;6.010;2024-01-15T01:53:45;100185.91;;;4.42;67.62
70976;BME280;58635;51.198;6.010;2024-01-15T01:56:11;100181.41;;;4.44;67.50
70976;BME280;58635;51.198;6.010;2024-01-15T01:58:37;100176.44;;;4.42;67.61
70976;BME280;58635;51.198;6.010;2024-01-15T02:01:03;100189.72;;;4.46;67.30
70976;BME280;58635;51.198;6.010;2024-01-15T02:03:30;100185.09;;;4.41;67.63
70976;BME280;58635;51.198;6.010;2024-01-15T02:05:56;100191.47;;;4.45;67.75
70976;BME280;58635;51.198;6.010;2024-01-15T02:08:21;100195.78;;;4.45;67.52
70976;BME280;58635;51.198;6.010;2024-01-15T02:10:47;100199.94;;;4.46;67.42
70976;BME280;58635;51.198;6.010;2024-01-15T02:13:12;100199.31;;;4.44;67.38
70976;BME280;58635;51.198;6.010;2024-01-15T02:15:38;100197.03;;;4.49;67.38
70976;BME280;58635;51.198;6.010;2024-01-15T02:18:05;100190.16;;;4.49;67.59
70976;BME280;58635;51.198;6.010;2024-01-15T02:20:31;100195.44;;;4.48;67.76
70976;BME280;58635;51.198;6.010;2024-01-15T02:23:08;100195.16;;;4.51;67.42
70976;BME280;58635;51.198;6.010;2024-01-15T02:25:35;100187.59;;;4.49;67.69
70976;BME280;58635;51.198;6.010;2024-01-15T02:28:01;100197.03;;;4.49;67.62
70976;BME280;58635;51.198;6.010;2024-01-15T02:30:28;100190.16;;;4.49;67.53
70976;BME280;58635;51.198;6.010;2024-01-15T02:32:53;100189.38;;;4.49;67.64
70976;BME280;58635;51.198;6.010;2024-01-15T02:35:19;100190.03;;;4.51;67.46
70976;BME280;58635;51.198;6.010;2024-01-15T02:37:44;100194.34;;;4.50;67.73
70976;BME280;58635;51.198;6.010;2024-01-15T02:40:10;100194.19;;;4.52;67.65
70976;BME280;58635;51.198;6.010;2024-01-15T02:42:35;100193.22;;;4.53;67.59
70976;BME280;58635;51.198;6.010;2024-01-15T02:45:00;100195.59;;;4.54;67.52
70976;BME280;58635;51.198;6.010;2024-01-15T02:47:26;100189.69;;;4.54;67.91
70976;BME280;58635;51.198;6.010;2024-01-15T02:49:51;100192.41;;;4.52;67.83
70976;BME280;58635;51.198;6.010;2024-01-15T02:52:17;100194.34;;;4.50;67.78
70976;BME280;58635;51.198;6.010;2024-01-15T02:54:42;100178.63;;;4.53;67.64
70976;BME280;58635;51.198;6.010;2024-01-15T02:57:08;100181.53;;;4.50;67.39
70976;BME280;58635;51.198;6.010;2024-01-15T02:59:33;100185.34;;;4.54;67.32
70976;BME280;58635;51.198;6.010;2024-01-15T03:01:59;100179.09;;;4.57;67.68
70976;BME280;58635;51.198;6.010;2024-01-15T03:04:24;100191.72;;;4.58;67.34
70976;BME280;58635;51.198;6.010;2024-01-15T03:06:49;100192.53;;;4.59;67.06
70976;BME280;58635;51.198;6.010;2024-01-15T03:09:15;100184.84;;;4.59;67.08
70976;BME280;58635;51.198;6.010;2024-01-15T03:11:40;100179.25;;;4.55;67.25
70976;BME280;58635;51.198;6.010;2024-01-15T03:14:06;100192.22;;;4.54;67.51
70976;BME280;58635;51.198;6.010;2024-01-15T03:16:31;100195.41;;;4.56;67.61
70976;BME280;58635;51.198;6.010;2024-01-15T03:18:56;100189.69;;;4.54;67.64
70976;BME280;58635;51.198;6.010;2024-01-15T03:21:22;100194.34;;;4.50;67.41
70976;BME280;58635;51.198;6.010;2024-01-15T03:23:47;100190.03;;;4.51;67.39
70976;BME280;58635;51.198;6.010;2024-01-15T03:26:12;100187.78;;;4.48;67.33
70976;BME280;58635;51.198;6.010;2024-01-15T03:28:38;100190.34;;;4.48;67.67
70976;BME280;58635;51.198;6.010;2024-01-15T03:31:03;100189.38;;;4.49;67.63
70976;BME280;58635;51.198;6.010;2024-01-15T03:33:29;100185.03;;;4.49;67.45
70976;BME280;58635;51.198;6.010;2024-01-15T03:35:54;100175.59;;;4.50;67.59
70976;BME280;58635;51.198;6.010;2024-01-15T03:38:19;100190.16;;;4.49;67.67
70976;BME280;58635;51.198;6.010;2024-01-15T03:40:45;100190.97;;;4.50;67.38
70976;BME280;58635;51.198;6.010;2024-01-15T03:43:10;100189.22;;;4.50;67.42
70976;BME280;58635;51.198;6.010;2024-01-15T03:45:35;100181.53;;;4.50;67.32
70976;BME280;58635;51.198;6.010;2024-01-15T03:48:01;100183.75;;;4.53;67.33
70976;BME280;58635;51.198;6.010;2024-01-15T03:50:26;100179.91;;;4.49;67.32
70976;BME280;58635;51.198;6.010;2024-01-15T03:52:51;100174.97;;;4.48;67.21
70976;BME280;58635;51.198;6.010;2024-01-15T03:55:17;100169.84;;;4.48;67.17
70976;BME280;58635;51.198;6.010;2024-01-15T03:57:42;100165.53;;;4.48;67.36
70976;BME280;58635;51.198;6.010;2024-01-15T04:00:08;100166.50;;;4.47;67.50
70976;BME280;58635;51.198;6.010;2024-01-15T04:02:33;100164.72;;;4.48;67.29
70976;BME280;58635;51.198;6.010;2024-01-15T04:04:59;100153.84;;;4.46;67.63
70976;BME280;58635;51.198;6.010;2024-01-15T04:07:24;100153.06;;;4.45;67.30
70976;BME280;58635;51.198;6.010;2024-01-15T04:09:49;100145.38;;;4.45;67.69
70976;BME280;58635;51.198;6.010;2024-01-15T04:12:15;100158.97;;;4.46;67.58
70976;BME280;58635;51.198;6.010;2024-01-15T04:14:40;100153.69;;;4.47;67.70
70976;BME280;58635;51.198;6.010;2024-01-15T04:17:05;100156.25;;;4.47;67.12
70976;BME280;58635;51.198;6.010;2024-01-15T04:19:31;100147.44;;;4.50;67.18
70976;BME280;58635;51.198;6.010;2024-01-15T04:21:56;100151.59;;;4.51;67.10
70976;BME280;58635;51.198;6.010;2024-01-15T04:24:21;100144.25;;;4.48;67.44
70976;BME280;58635;51.198;6.010;2024-01-15T04:26:47;100145.22;;;4.47;67.47
70976;BME280;58635;51.198;6.010;2024-01-15T04:29:12;100148.41;;;4.49;67.56
70976;BME280;58635;51.198;6.010;2024-01-15T04:31:37;100138.31;;;4.47;67.47
70976;BME280;58635;51.198;6.010;2024-01-15T04:34:03;100141.50;;;4.49;67.30
70976;BME280;58635;51.198;6.010;2024-01-15T04:36:28;100141.69;;;4.48;67.34
70976;BME280;58635;51.198;6.010;2024-01-15T04:38:53;100147.44;;;4.50;67.35
70976;BME280;58635;51.198;6.010;2024-01-15T04:41:19;100141.38;;;4.51;67.60
70976;BME280;58635;51.198;6.010;2024-01-15T04:43:44;100137.31;;;4.56;67.02
70976;BME280;58635;51.198;6.010;2024-01-15T04:46:09;100139.53;;;4.59;66.91
70976;BME280;58635;51.198;6.010;2024-01-15T04:48:35;100131.06;;;4.59;67.30
70976;BME280;58635;51.198;6.010;2024-01-15T04:51:00;100135.19;;;4.60;67.00
70976;BME280;58635;51.198;6.010;2024-01-15T04:53:26;100123.19;;;4.60;67.03
70976;BME280;58635;51.198;6.010;2024-01-15T04:55:51;100123.06;;;4.62;66.94
70976;BME280;58635;51.198;6.010;2024-01-15T04:58:16;100119.22;;;4.58;66.94
70976;BME280;58635;51.198;6.010;2024-01-15T05:00:42;100114.09;;;4.58;66.84
70976;BME280;58635;51.198;6.010;2024-01-15T05:03:07;100124.34;;;4.58;67.37
70976;BME280;58635;51.198;6.010;2024-01-15T05:05:33;100120.19;;;4.57;67.25
70976;BME280;58635;51.198;6.010;2024-01-15T05:07:58;100114.25;;;4.56;66.98
70976;BME280;58635;51.198;6.010;2024-01-15T05:10:23;100119.56;;;4.55;67.36
70976;BME280;58635;51.198;6.010;2024-01-15T05:12:49;100124.69;;;4.55;67.36
70976;BME280;58635;51.198;6.010;2024-01-15T05:15:14;100114.44;;;4.55;67.35
70976;BME280;58635;51.198;6.010;2024-01-15T05:17:40;100118.94;;;4.53;67.19
70976;BME280;58635;51.198;6.010;2024-01-15T05:20:05;100117.34;;;4.52;67.50
70976;BME280;58635;51.198;6.010;2024-01-15T05:22:33;100129.00;;;4.54;67.66
70976;BME280;58635;51.198;6.010;2024-01-15T05:24:58;100120.53;;;4.54;67.50
70976;BME280;58635;51.198;6.010;2024-01-15T05:27:24;100115.41;;;4.54;67.40
70976;BME280;58635;51.198;6.010;2024-01-15T05:29:50;100113.81;;;4.53;67.21
70976;BME280;58635;51.198;6.010;2024-01-15T05:32:16;100109.66;;;4.52;67.50
70976;BME280;58635;51.198;6.010;2024-01-15T05:34:41;100110.47;;;4.52;67.38
70976;BME280;58635;51.198;6.010;2024-01-15T05:37:06;100103.41;;;4.54;67.32
70976;BME280;58635;51.198;6.010;2024-01-15T05:39:32;100098.91;;;4.56;67.18
70976;BME280;58635;51.198;6.010;2024-01-15T05:41:58;100101.28;;;4.58;67.36
70976;BME280;58635;51.198;6.010;2024-01-15T05:44:23;100105.63;;;4.57;67.54
70976;BME280;58635;51.198;6.010;2024-01-15T05:46:49;100102.25;;;4.57;67.35
70976;BME280;58635;51.198;6.010;2024-01-15T05:49:14;100098.09;;;4.56;67.57
70976;BME280;58635;51.198;6.010;2024-01-15T05:51:39;100093.16;;;4.54;67.25
70976;BME280;58635;51.198;6.010;2024-01-15T05:54:05;100096.16;;;4.58;67.47
70976;BME280;58635;51.198;6.010;2024-01-15T05:56:31;100095.38;;;4.57;67.28
70976;BME280;58635;51.198;6.010;2024-01-15T05:58:56;100096.97;;;4.58;67.63
70976;BME280;58635;51.198;6.010;2024-01-15T06:01:21;100098.56;;;4.59;67.34
70976;BME280;58635;51.198;6.010;2024-01-15T06:03:47;100097.59;;;4.60;67.63
70976;BME280;58635;51.198;6.010;2024-01-15T06:06:12;100103.34;;;4.62;67.42
70976;BME280;58635;51.198;6.010;2024-01-15T06:08:38;100100.78;;;4.62;67.58
70976;BME280;58635;51.198;6.010;2024-01-15T06:11:03;100094.53;;;4.65;67.56
70976;BME280;58635;51.198;6.010;2024-01-15T06:13:28;100091.16;;;4.64;67.11
70976;BME280;58635;51.198;6.010;2024-01-15T06:15:54;100085.25;;;4.64;67.58
70976;BME280;58635;51.198;6.010;2024-01-15T06:18:19;100076.78;;;4.63;67.68
70976;BME280;58635;51.198;6.010;2024-01-15T06:20:44;100081.72;;;4.65;67.33
70976;BME280;58635;51.198;6.010;2024-01-15T06:23:10;100075.97;;;4.63;67.35
70976;BME280;58635;51.198;6.010;2024-01-15T06:25:40;100075.00;;;4.64;67.58
70976;BME280;58635;51.198;6.010;2024-01-15T06:28:06;100075.00;;;4.64;67.44
70976;BME280;58635;51.198;6.010;2024-01-15T06:30:31;100070.69;;;4.64;67.31
70976;BME280;58635;51.198;6.010;2024-01-15T06:32:56;100075.97;;;4.63;67.73
70976;BME280;58635;51.198;6.010;2024-01-15T06:35:22;100072.44;;;4.64;67.31
70976;BME280;58635;51.198;6.010;2024-01-15T06:37:47;100073.06;;;4.66;67.20
70976;BME280;58635;51.198;6.010;2024-01-15T06:40:12;100074.66;;;4.67;67.52
70976;BME280;58635;51.198;6.010;2024-01-15T06:42:38;100075.81;;;4.64;66.97
70976;BME280;58635;51.198;6.010;2024-01-15T06:45:04;100072.28;;;4.65;67.71
70976;BME280;58635;51.198;6.010;2024-01-15T06:47:29;100076.78;;;4.63;67.40
70976;BME280;58635;51.198;6.010;2024-01-15T06:49:56;100060.03;;;4.53;67.27
70976;BME280;58635;51.198;6.010;2024-01-15T06:52:21;100068.28;;;4.63;67.38
70976;BME280;58635;51.198;6.010;2024-01-15T06:54:46;100072.75;;;4.61;67.73
70976;BME280;58635;51.198;6.010;2024-01-15T06:57:13;100069.88;;;4.64;67.58
70976;BME280;58635;51.198;6.010;2024-01-15T06:59:38;100069.09;;;4.63;67.74
70976;BME280;58635;51.198;6.010;2024-01-15T07:02:03;100067.50;;;4.62;67.42
70976;BME280;58635;51.198;6.010;2024-01-15T07:04:29;100067.31;;;4.64;67.48
70976;BME280;58635;51.198;6.010;2024-01-15T07:06:54;100067.16;;;4.65;67.54
70976;BME280;58635;51.198;6.010;2024-01-15T07:09:19;100058.19;;;4.61;67.60
70976;BME280;58635;51.198;6.010;2024-01-15T07:11:46;100066.53;;;4.63;67.39
70976;BME280;58635;51.198;6.010;2024-01-15T07:14:11;100076.94;;;4.62;67.65
70976;BME280;58635;51.198;6.010;2024-01-15T07:16:37;100064.47;;;4.59;67.51
70976;BME280;58635;51.198;6.010;2024-01-15T07:19:02;100063.50;;;4.60;67.40
70976;BME280;58635;51.198;6.010;2024-01-15T07:21:28;100069.59;;;4.59;67.88
70976;BME280;58635;51.198;6.010;2024-01-15T07:23:53;100061.81;;;4.52;67.84
70976;BME280;58635;51.198;6.010;2024-01-15T07:26:18;100068.88;;;4.50;67.88
70976;BME280;58635;51.198;6.010;2024-01-15T07:28:44;100063.75;;;4.50;67.93
70976;BME280;58635;51.198;6.010;2024-01-15T07:31:09;100067.25;;;4.49;67.74
70976;BME280;58635;51.198;6.010;2024-01-15T07:33:34;100056.38;;;4.47;67.85
70976;BME280;58635;51.198;6.010;2024-01-15T07:36:00;100060.88;;;4.45;67.82
70976;BME280;58635;51.198;6.010;2024-01-15T07:38:26;100052.41;;;4.45;67.64
70976;BME280;58635;51.198;6.010;2024-01-15T07:40:52;100061.50;;;4.47;67.60
70976;BME280;58635;51.198;6.010;2024-01-15T07:43:19;100057.97;;;4.48;67.44
70976;BME280;58635;51.198;6.010;2024-01-15T07:45:44;100047.72;;;4.48;67.46
70976;BME280;58635;51.198;6.010;2024-01-15T07:48:10;100050.13;;;4.50;67.86
70976;BME280;58635;51.198;6.010;2024-01-15T07:50:36;100058.63;;;4.50;67.68
70976;BME280;58635;51.198;6.010;2024-01-15T07:53:01;100057.00;;;4.49;67.68
70976;BME280;58635;51.198;6.010;2024-01-15T07:55:26;100058.94;;;4.47;67.52
70976;BME280;58635;51.198;6.010;2024-01-15T07:57:52;100065.47;;;4.50;67.67
70976;BME280;58635;51.198;6.010;2024-01-15T08:00:19;100056.56;;;4.46;67.76
70976;BME280;58635;51.198;6.010;2024-01-15T08:02:44;100059.28;;;4.44;67.79
70976;BME280;58635;51.198;6.010;2024-01-15T08:05:09;100061.84;;;4.44;67.83
70976;BME280;58635;51.198;6.010;2024-01-15T08:07:35;100063.63;;;4.44;67.97
70976;BME280;58635;51.198;6.010;2024-01-15T08:10:00;100068.91;;;4.42;67.74
70976;BME280;58635;51.198;6.010;2024-01-15T08:12:28;100075.81;;;4.42;67.62
70976;BME280;58635;51.198;6.010;2024-01-15T08:14:54;100072.44;;;4.41;67.96
70976;BME280;58635;51.198;6.010;2024-01-15T08:17:33;100075.63;;;4.43;67.79
70976;BME280;58635;51.198;6.010;2024-01-15T08:19:58;100072.91;;;4.45;67.44
70976;BME280;58635;51.198;6.010;2024-01-15T08:22:25;100075.28;;;4.46;67.40
70976;BME280;58635;51.198;6.010;2024-01-15T08:24:50;100082.78;;;4.48;67.71
70976;BME280;58635;51.198;6.010;2024-01-15T08:27:17;100080.75;;;4.43;67.41
70976;BME280;58635;51.198;6.010;2024-01-15T08:29:42;100083.47;;;4.42;67.58
70976;BME280;58635;51.198;6.010;2024-01-15T08:32:07;100075.97;;;4.40;67.84
70976;BME280;58635;51.198;6.010;2024-01-15T08:34:33;100078.38;;;4.42;67.43
70976;BME280;58635;51.198;6.010;2024-01-15T08:36:58;100078.53;;;4.40;67.51
70976;BME280;58635;51.198;6.010;2024-01-15T08:39:23;100079.66;;;4.37;67.36
70976;BME280;58635;51.198;6.010;2024-01-15T08:41:49;100083.66;;;4.40;67.71
70976;BME280;58635;51.198;6.010;2024-01-15T08:44:14;100095.66;;;4.39;67.35
70976;BME280;58635;51.198;6.010;2024-01-15T08:46:39;100097.88;;;4.43;67.20
70976;BME280;58635;51.198;6.010;2024-01-15T08:49:05;100099.81;;;4.40;67.49
70976;BME280;58635;51.198;6.010;2024-01-15T08:51:31;100100.78;;;4.39;67.50
70976;BME280;58635;51.198;6.010;2024-01-15T08:53:56;100107.50;;;4.40;67.47
70976;BME280;58635;51.198;6.010;2024-01-15T08:56:22;100101.22;;;4.43;67.41
70976;BME280;58635;51.198;6.010;2024-01-15T08:58:47;100100.09;;;4.46;67.62
70976;BME280;58635;51.198;6.010;2024-01-15T09:01:13;100105.03;;;4.47;67.27
70976;BME280;58635;51.198;6.010;2024-01-15T09:03:40;100105.66;;;4.49;67.33
70976;BME280;58635;51.198;6.010;2024-01-15T09:06:06;100110.78;;;4.49;67.16
70976;BME280;58635;51.198;6.010;2024-01-15T09:08:32;100113.66;;;4.54;67.05
70976;BME280;58635;51.198;6.010;2024-01-15T09:10:57;100112.06;;;4.53;67.27
70976;BME280;58635;51.198;6.010;2024-01-15T09:13:23;100114.63;;;4.53;67.36
70976;BME280;58635;51.198;6.010;2024-01-15T09:15:49;100122.91;;;4.55;67.39
70976;BME280;58635;51.198;6.010;2024-01-15T09:18:14;100119.56;;;4.55;67.11
70976;BME280;58635;51.198;6.010;2024-01-15T09:20:39;100128.84;;;4.56;67.12
70976;BME280;58635;51.198;6.010;2024-01-15T09:23:05;100128.03;;;4.55;67.40
70976;BME280;58635;51.198;6.010;2024-01-15T09:25:30;100115.41;;;4.54;67.16
70976;BME280;58635;51.198;6.010;2024-01-15T09:27:55;100112.69;;;4.55;67.45
70976;BME280;58635;51.198;6.010;2024-01-15T09:30:21;100123.88;;;4.54;67.34
70976;BME280;58635;51.198;6.010;2024-01-15T09:32:46;100122.13;;;4.55;67.03
70976;BME280;58635;51.198;6.010;2024-01-15T09:35:11;100118.75;;;4.54;67.26
70976;BME280;58635;51.198;6.010;2024-01-15T09:37:37;100117.63;;;4.57;67.01
70976;BME280;58635;51.198;6.010;2024-01-15T09:40:04;100120.34;;;4.55;67.13
70976;BME280;58635;51.198;6.010;2024-01-15T09:42:31;100111.09;;;4.54;66.95
70976;BME280;58635;51.198;6.010;2024-01-15T09:44:57;100123.88;;;4.54;66.92
70976;BME280;58635;51.198;6.010;2024-01-15T09:47:23;100132.19;;;4.56;66.98
70976;BME280;58635;51.198;6.010;2024-01-15T09:49:50;100136.69;;;4.54;67.25
70976;BME280;58635;51.198;6.010;2024-01-15T09:52:15;100138.28;;;4.55;67.20
70976;BME280;58635;51.198;6.010;2024-01-15T09:54:46;100135.56;;;4.57;67.20
70976;BME280;58635;51.198;6.010;2024-01-15T09:57:11;100139.88;;;4.56;66.72
70976;BME280;58635;51.198;6.010;2024-01-15T09:59:37;100135.72;;;4.55;67.23
70976;BME280;58635;51.198;6.010;2024-01-15T10:02:05;100135.91;;;4.54;67.15
70976;BME280;58635;51.198;6.010;2024-01-15T10:04:31;100121.50;;;4.53;67.04
70976;BME280;58635;51.198;6.010;2024-01-15T10:06:57;100133.16;;;4.55;66.88
70976;BME280;58635;51.198;6.010;2024-01-15T10:09:25;100137.94;;;4.58;66.87
70976;BME280;58635;51.198;6.010;2024-01-15T10:11:50;100139.34;;;4.61;66.84
70976;BME280;58635;51.198;6.010;2024-01-15T10:14:15;100139.03;;;4.64;66.81
70976;BME280;58635;51.198;6.010;2024-01-15T10:16:41;100142.56;;;4.63;66.83
70976;BME280;58635;51.198;6.010;2024-01-15T10:19:07;100136.13;;;4.67;66.68
70976;BME280;58635;51.198;6.010;2024-01-15T10:21:33;100133.38;;;4.68;66.97
70976;BME280;58635;51.198;6.010;2024-01-15T10:24:02;100133.22;;;4.70;66.73
70976;BME280;58635;51.198;6.010;2024-01-15T10:26:28;100138.97;;;4.72;66.66
70976;BME280;58635;51.198;6.010;2024-01-15T10:29:14;100135.59;;;4.72;67.03
70976;BME280;58635;51.198;6.010;2024-01-15T10:32:00;100129.69;;;4.71;67.24
70976;BME280;58635;51.198;6.010;2024-01-15T10:34:46;100133.22;;;4.70;66.90
70976;BME280;58635;51.198;6.010;2024-01-15T10:37:34;100123.50;;;4.65;66.95
70976;BME280;58635;51.198;6.010;2024-01-15T10:40:20;100126.50;;;4.69;67.02
70976;BME280;58635;51.198;6.010;2024-01-15T10:43:05;100129.06;;;4.69;66.94
70976;BME280;58635;51.198;6.010;2024-01-15T10:45:51;100126.00;;;4.74;67.17
70976;BME280;58635;51.198;6.010;2024-01-15T10:48:36;100123.28;;;4.75;66.95
70976;BME280;58635;51.198;6.010;2024-01-15T10:51:22;100133.16;;;4.78;66.82
70976;BME280;58635;51.198;6.010;2024-01-15T10:54:09;100116.03;;;4.79;66.84
70976;BME280;58635;51.198;6.010;2024-01-15T10:56:56;100126.72;;;4.82;66.78
70976;BME280;58635;51.198;6.010;2024-01-15T10:59:41;100121.59;;;4.82;66.59
70976;BME280;58635;51.198;6.010;2024-01-15T11:02:27;100121.59;;;4.82;66.91
70976;BME280;58635;51.198;6.010;2024-01-15T11:04:52;100120.63;;;4.83;67.12
70976;BME280;58635;51.198;6.010;2024-01-15T11:07:24;100123.00;;;4.85;67.01
70976;BME280;58635;51.198;6.010;2024-01-15T11:09:50;100114.09;;;4.81;66.65
70976;BME280;58635;51.198;6.010;2024-01-15T11:12:16;100121.59;;;4.82;66.76
70976;BME280;58635;51.198;6.010;2024-01-15T11:14:47;100128.66;;;4.80;67.04
70976;BME280;58635;51.198;6.010;2024-01-15T11:17:14;100130.88;;;4.83;66.81
70976;BME280;58635;51.198;6.010;2024-01-15T11:19:48;100130.38;;;4.88;67.08
70976;BME280;58635;51.198;6.010;2024-01-15T11:24:55;100116.88;;;4.94;66.55
70976;BME280;58635;51.198;6.010;2024-01-15T11:27:43;100114.31;;;4.94;66.59
70976;BME280;58635;51.198;6.010;2024-01-15T11:30:09;100107.94;;;4.90;66.87
70976;BME280;58635;51.198;6.010;2024-01-15T11:32:39;100116.41;;;4.90;66.81
70976;BME280;58635;51.198;6.010;2024-01-15T11:35:08;100113.84;;;4.90;67.20
70976;BME280;58635;51.198;6.010;2024-01-15T11:43:02;100114.41;;;5.01;66.83
70976;BME280;58635;51.198;6.010;2024-01-15T11:45:30;100106.38;;;5.04;66.57
70976;BME280;58635;51.198;6.010;2024-01-15T11:50:24;100116.09;;;5.08;66.76
70976;BME280;58635;51.198;6.010;2024-01-15T11:53:02;100124.44;;;5.10;66.84
70976;BME280;58635;51.198;6.010;2024-01-15T11:55:33;100125.22;;;5.11;66.92
70976;BME280;58635;51.198;6.010;2024-01-15T11:58:01;100116.75;;;5.10;66.38
70976;BME280;58635;51.198;6.010;2024-01-15T12:00:28;100127.16;;;5.09;66.71
70976;BME280;58635;51.198;6.010;2024-01-15T12:02:54;100125.56;;;5.08;66.44
70976;BME280;58635;51.198;6.010;2024-01-15T12:05:20;100127.00;;;5.10;66.59
70976;BME280;58635;51.198;6.010;2024-01-15T12:07:55;100132.81;;;5.19;66.43
70976;BME280;58635;51.198;6.010;2024-01-15T12:10:21;100128.25;;;5.29;66.73
70976;BME280;58635;51.198;6.010;2024-01-15T12:12:55;100132.97;;;5.40;66.47
70976;BME280;58635;51.198;6.010;2024-01-15T12:15:22;100133.84;;;5.47;66.22
70976;BME280;58635;51.198;6.010;2024-01-15T12:17:47;100137.94;;;5.56;66.43
70976;BME280;58635;51.198;6.010;2024-01-15T12:20:13;100148.28;;;5.63;66.00
70976;BME280;58635;51.198;6.010;2024-01-15T12:22:39;100136.44;;;5.62;65.63
70976;BME280;58635;51.198;6.010;2024-01-15T12:25:05;100137.41;;;5.61;65.76
70976;BME280;58635;51.198;6.010;2024-01-15T12:27:31;100142.72;;;5.60;65.34
70976;BME280;58635;51.198;6.010;2024-01-15T12:29:58;100142.25;;;5.56;65.59
70976;BME280;58635;51.198;6.010;2024-01-15T12:32:24;100144.72;;;5.49;65.63
70976;BME280;58635;51.198;6.010;2024-01-15T12:34:50;100144.28;;;5.46;65.53
70976;BME280;58635;51.198;6.010;2024-01-15T12:37:18;100145.41;;;5.43;65.71
70976;BME280;58635;51.198;6.010;2024-01-15T12:39:44;100143.22;;;5.40;65.82
70976;BME280;58635;51.198;6.010;2024-01-15T12:42:10;100149.50;;;5.38;65.71
70976;BME280;58635;51.198;6.010;2024-01-15T12:44:35;100155.41;;;5.38;66.11
70976;BME280;58635;51.198;6.010;2024-01-15T12:47:04;100147.00;;;5.44;65.99
70976;BME280;58635;51.198;6.010;2024-01-15T12:49:29;100148.09;;;5.50;65.91
70976;BME280;58635;51.198;6.010;2024-01-15T12:51:57;100152.50;;;5.56;65.92
70976;BME280;58635;51.198;6.010;2024-01-15T12:54:23;100156.84;;;5.55;65.69
70976;BME280;58635;51.198;6.010;2024-01-15T12:56:49;100146.25;;;5.58;65.36
70976;BME280;58635;51.198;6.010;2024-01-15T12:59:14;100153.59;;;5.62;65.80
70976;BME280;58635;51.198;6.010;2024-01-15T13:01:40;100172.34;;;5.62;65.15
70976;BME280;58635;51.198;6.010;2024-01-15T13:04:06;100162.44;;;5.59;65.55
70976;BME280;58635;51.198;6.010;2024-01-15T13:06:36;100162.69;;;5.64;65.38
70976;BME280;58635;51.198;6.010;2024-01-15T13:09:03;100166.66;;;5.67;65.09